createdAt,value
2023-05-06T00:02:04.536Z,65.81
2023-05-06T00:04:09.223Z,66.02
2023-05-06T00:06:13.956Z,66.02
2023-05-06T00:08:21.590Z,66.07
2023-05-06T00:10:26.578Z,66.16
2023-05-06T00:12:31.167Z,66.24
2023-05-06T00:14:35.797Z,66.37
2023-05-06T00:16:40.553Z,66.31
2023-05-06T00:18:45.215Z,66.48
2023-05-06T00:20:49.853Z,66.51
2023-05-06T00:22:54.686Z,66.65
2023-05-06T00:24:59.343Z,66.76
2023-05-06T00:27:06.917Z,67.05
2023-05-06T00:29:11.588Z,67.06
2023-05-06T00:31:16.302Z,67.26
2023-05-06T00:33:20.958Z,67.27
2023-05-06T00:35:26.168Z,67.20
2023-05-06T00:37:30.804Z,67.08
2023-05-06T00:39:35.469Z,67.15
2023-05-06T00:41:40.177Z,67.37
2023-05-06T00:43:44.792Z,67.21
2023-05-06T00:45:51.063Z,67.34
2023-05-06T00:47:56.415Z,67.76
2023-05-06T00:50:01.330Z,67.87
2023-05-06T00:52:07.396Z,67.92
2023-05-06T00:54:12.108Z,67.88
2023-05-06T00:56:18.338Z,68.01
2023-05-06T00:58:24.821Z,68.33
2023-05-06T01:00:29.754Z,68.40
2023-05-06T01:02:46.567Z,68.67
2023-05-06T01:04:52.510Z,68.55
2023-05-06T01:07:08.508Z,68.32
2023-05-06T01:09:21.426Z,68.49
2023-05-06T01:11:33.895Z,68.16
2023-05-06T01:13:46.814Z,68.19
2023-05-06T01:15:54.811Z,68.06
2023-05-06T01:18:01.567Z,68.07
2023-05-06T01:20:10.107Z,68.19
2023-05-06T01:22:15.367Z,68.11
2023-05-06T01:24:19.991Z,67.95
2023-05-06T01:26:24.805Z,68.02
2023-05-06T01:28:29.424Z,67.82
2023-05-06T01:30:40.564Z,67.54
2023-05-06T01:32:56.994Z,67.11
2023-05-06T01:35:12.102Z,67.04
2023-05-06T01:37:27.679Z,66.97
2023-05-06T01:39:34.112Z,66.95
2023-05-06T01:41:40.747Z,66.94
2023-05-06T01:43:49.322Z,66.89
2023-05-06T01:45:56.022Z,66.76
2023-05-06T01:48:01.058Z,67.00
2023-05-06T01:50:06.772Z,67.09
2023-05-06T01:52:11.437Z,67.07
2023-05-06T01:54:16.108Z,67.35
2023-05-06T01:56:20.733Z,67.63
2023-05-06T01:58:25.491Z,67.43
2023-05-06T02:00:30.276Z,67.61
2023-05-06T02:02:34.945Z,67.75
2023-05-06T02:04:39.747Z,67.88
2023-05-06T02:06:44.552Z,68.15
2023-05-06T02:08:50.655Z,68.12
2023-05-06T02:10:58.462Z,68.12
2023-05-06T02:13:03.211Z,68.30
2023-05-06T02:15:09.914Z,68.67
2023-05-06T02:17:15.173Z,68.28
2023-05-06T02:19:19.874Z,68.69
2023-05-06T02:21:24.694Z,68.29
2023-05-06T02:23:29.333Z,68.52
2023-05-06T02:25:33.970Z,68.46
2023-05-06T02:27:38.676Z,68.43
2023-05-06T02:29:43.290Z,68.34
2023-05-06T02:31:48.002Z,68.06
2023-05-06T02:33:53.575Z,68.18
2023-05-06T02:35:58.198Z,67.96
2023-05-06T02:38:02.858Z,67.84
2023-05-06T02:40:09.297Z,67.76
2023-05-06T02:42:16.134Z,67.67
2023-05-06T02:44:20.820Z,67.63
2023-05-06T02:46:26.763Z,67.56
2023-05-06T02:48:31.398Z,67.43
2023-05-06T02:50:36.620Z,67.32
2023-05-06T02:52:41.255Z,67.37
2023-05-06T02:54:48.834Z,67.38
2023-05-06T02:56:53.523Z,67.19
2023-05-06T02:58:58.092Z,67.13
2023-05-06T03:01:02.816Z,67.08
2023-05-06T03:03:07.529Z,67.06
2023-05-06T03:05:12.574Z,67.04
2023-05-06T03:07:17.345Z,67.00
2023-05-06T03:09:22.035Z,66.96
2023-05-06T03:11:26.981Z,66.83
2023-05-06T03:13:31.580Z,66.65
2023-05-06T03:15:36.484Z,66.59
2023-05-06T03:17:41.482Z,66.63
2023-05-06T03:19:46.650Z,66.61
2023-05-06T03:21:51.610Z,66.44
2023-05-06T03:23:57.497Z,66.41
2023-05-06T03:26:02.697Z,66.29
2023-05-06T03:28:07.918Z,66.40
2023-05-06T03:30:14.555Z,66.38
2023-05-06T03:32:19.660Z,66.42
2023-05-06T03:34:24.423Z,66.29
2023-05-06T03:36:29.278Z,66.28
2023-05-06T03:38:34.032Z,66.14
2023-05-06T03:40:40.770Z,66.21
2023-05-06T03:42:46.238Z,66.19
2023-05-06T03:44:51.250Z,66.11
2023-05-06T03:46:56.201Z,66.20
2023-05-06T03:49:02.583Z,66.19
2023-05-06T03:51:07.521Z,66.14
2023-05-06T03:53:12.380Z,66.23
2023-05-06T03:55:18.349Z,66.32
2023-05-06T03:57:23.363Z,66.42
2023-05-06T03:59:28.621Z,66.73
2023-05-06T04:01:33.706Z,66.81
2023-05-06T04:03:38.434Z,67.01
2023-05-06T04:05:43.087Z,67.23
2023-05-06T04:07:48.515Z,67.32
2023-05-06T04:09:53.160Z,67.51
2023-05-06T04:11:58.244Z,67.69
2023-05-06T04:14:03.934Z,67.67
2023-05-06T04:16:09.139Z,67.92
2023-05-06T04:18:17.237Z,67.98
2023-05-06T04:20:23.297Z,68.09
2023-05-06T04:22:27.861Z,68.04
2023-05-06T04:24:32.843Z,68.02
2023-05-06T04:26:37.762Z,67.90
2023-05-06T04:28:42.747Z,68.01
2023-05-06T04:30:48.032Z,67.72
2023-05-06T04:32:54.688Z,67.85
2023-05-06T04:34:59.668Z,67.86
2023-05-06T04:37:04.601Z,67.83
2023-05-06T04:39:14.407Z,67.77
2023-05-06T04:41:19.255Z,67.69
2023-05-06T04:43:25.305Z,67.55
2023-05-06T04:45:32.720Z,67.65
2023-05-06T04:47:37.446Z,67.83
2023-05-06T04:49:43.263Z,67.79
2023-05-06T04:51:48.334Z,67.71
2023-05-06T04:53:53.424Z,67.80
2023-05-06T04:55:58.207Z,67.69
2023-05-06T04:58:03.138Z,67.83
2023-05-06T05:00:09.838Z,68.00
2023-05-06T05:02:15.184Z,68.33
2023-05-06T05:04:19.901Z,68.37
2023-05-06T05:06:25.112Z,68.47
2023-05-06T05:08:30.296Z,68.63
2023-05-06T05:10:35.033Z,68.68
2023-05-06T05:12:39.656Z,68.73
2023-05-06T05:14:44.400Z,68.99
2023-05-06T05:16:49.234Z,69.18
2023-05-06T05:18:54.826Z,69.32
2023-05-06T05:21:01.404Z,69.54
2023-05-06T05:23:06.964Z,69.88
2023-05-06T05:25:11.950Z,70.79
2023-05-06T05:27:17.301Z,70.51
2023-05-06T05:29:22.950Z,70.79
2023-05-06T05:31:28.528Z,70.75
2023-05-06T05:33:33.452Z,70.82
2023-05-06T05:35:38.655Z,70.97
2023-05-06T05:37:43.597Z,70.59
2023-05-06T05:39:48.809Z,70.51
2023-05-06T05:41:53.976Z,71.47
2023-05-06T05:43:58.865Z,72.35
2023-05-06T05:46:04.399Z,71.56
2023-05-06T05:48:10.225Z,71.46
2023-05-06T05:50:15.628Z,72.06
2023-05-06T05:52:21.334Z,71.93
2023-05-06T05:54:26.070Z,72.35
2023-05-06T05:56:31.077Z,72.64
2023-05-06T05:58:36.500Z,72.93
2023-05-06T06:00:41.299Z,73.45
2023-05-06T06:02:47.741Z,73.53
2023-05-06T06:04:55.358Z,73.68
2023-05-06T06:07:01.060Z,73.72
2023-05-06T06:09:06.178Z,73.79
2023-05-06T06:11:11.179Z,73.94
2023-05-06T06:13:18.088Z,74.00
2023-05-06T06:15:23.090Z,73.71
2023-05-06T06:17:28.129Z,73.74
2023-05-06T06:19:33.266Z,73.47
2023-05-06T06:21:38.014Z,73.48
2023-05-06T06:23:42.691Z,73.29
2023-05-06T06:25:48.461Z,73.28
2023-05-06T06:27:54.146Z,73.06
2023-05-06T06:29:58.855Z,72.45
2023-05-06T06:32:05.062Z,72.37
2023-05-06T06:34:12.828Z,72.40
2023-05-06T06:36:17.559Z,72.05
2023-05-06T06:38:22.293Z,71.40
2023-05-06T06:40:27.068Z,71.27
2023-05-06T06:42:31.857Z,71.22
2023-05-06T06:44:46.144Z,71.11
2023-05-06T06:46:50.790Z,70.96
2023-05-06T06:48:55.500Z,70.80
2023-05-06T06:51:00.234Z,70.80
2023-05-06T06:53:06.387Z,70.43
2023-05-06T06:55:12.297Z,69.68
2023-05-06T06:57:17.324Z,69.02
2023-05-06T06:59:22.005Z,68.93
2023-05-06T07:01:26.825Z,68.82
2023-05-06T07:03:31.681Z,68.19
2023-05-06T07:05:36.676Z,67.78
2023-05-06T07:07:41.577Z,67.44
2023-05-06T07:09:49.030Z,67.40
2023-05-06T07:11:53.652Z,66.98
2023-05-06T07:13:58.275Z,66.07
2023-05-06T07:16:03.015Z,65.31
2023-05-06T07:18:07.855Z,65.10
2023-05-06T07:20:13.951Z,64.17
2023-05-06T07:22:18.636Z,63.06
2023-05-06T07:24:23.414Z,63.02
2023-05-06T07:26:28.091Z,62.71
2023-05-06T07:28:32.998Z,62.08
2023-05-06T07:30:39.523Z,61.73
2023-05-06T07:32:44.119Z,61.21
2023-05-06T07:34:48.843Z,60.56
2023-05-06T07:36:53.520Z,60.52
2023-05-06T07:38:58.946Z,60.37
2023-05-06T07:41:03.720Z,60.08
2023-05-06T07:43:08.732Z,59.74
2023-05-06T07:45:13.580Z,59.42
2023-05-06T07:47:27.597Z,59.10
2023-05-06T07:49:35.429Z,59.21
2023-05-06T07:51:41.278Z,59.17
2023-05-06T07:53:45.983Z,59.04
2023-05-06T07:55:50.565Z,58.89
2023-05-06T07:57:55.388Z,58.91
2023-05-06T07:59:59.969Z,58.81
2023-05-06T08:02:04.782Z,58.80
2023-05-06T08:04:09.705Z,58.73
2023-05-06T08:06:14.426Z,58.30
2023-05-06T08:08:19.501Z,58.32
2023-05-06T08:10:24.245Z,58.43
2023-05-06T08:12:28.919Z,57.55
2023-05-06T08:14:33.862Z,57.81
2023-05-06T08:16:38.843Z,57.14
2023-05-06T08:18:43.637Z,56.39
2023-05-06T08:20:48.281Z,56.54
2023-05-06T08:22:52.928Z,56.41
2023-05-06T08:24:57.728Z,56.21
2023-05-06T08:27:02.412Z,56.17
2023-05-06T08:29:07.228Z,55.97
2023-05-06T08:31:12.055Z,56.05
2023-05-06T08:33:16.781Z,55.71
2023-05-06T08:35:21.656Z,55.87
2023-05-06T08:37:26.406Z,55.63
2023-05-06T08:39:31.008Z,54.98
2023-05-06T08:41:38.283Z,55.34
2023-05-06T08:43:45.560Z,55.59
2023-05-06T08:45:51.000Z,55.70
2023-05-06T08:47:55.674Z,55.47
2023-05-06T08:50:00.402Z,55.77
2023-05-06T08:52:08.557Z,55.78
2023-05-06T08:54:14.233Z,55.28
2023-05-06T08:56:21.014Z,55.39
2023-05-06T08:58:26.486Z,55.56
2023-05-06T09:00:31.296Z,55.47
2023-05-06T09:02:37.138Z,55.51
2023-05-06T09:04:41.934Z,55.30
2023-05-06T09:06:46.637Z,55.07
2023-05-06T09:08:51.543Z,55.05
2023-05-06T09:10:56.676Z,54.38
2023-05-06T09:13:01.434Z,54.37
2023-05-06T09:15:07.787Z,54.34
2023-05-06T09:17:21.149Z,53.84
2023-05-06T09:19:26.306Z,53.68
2023-05-06T09:21:36.574Z,53.65
2023-05-06T09:23:41.807Z,53.59
2023-05-06T09:25:47.414Z,53.80
2023-05-06T09:28:03.085Z,53.44
2023-05-06T09:30:10.088Z,53.11
2023-05-06T09:32:15.948Z,52.86
2023-05-06T09:34:20.862Z,53.11
2023-05-06T09:36:27.102Z,52.82
2023-05-06T09:38:32.891Z,51.85
2023-05-06T09:40:38.537Z,52.21
2023-05-06T09:42:45.191Z,52.07
2023-05-06T09:44:50.362Z,51.82
2023-05-06T09:46:55.108Z,51.55
2023-05-06T09:49:00.512Z,52.02
2023-05-06T09:51:05.607Z,52.25
2023-05-06T09:53:12.104Z,52.04
2023-05-06T09:55:17.533Z,51.91
2023-05-06T09:57:23.261Z,51.77
2023-05-06T09:59:30.519Z,51.44
2023-05-06T10:01:37.279Z,51.40
2023-05-06T10:03:44.599Z,51.25
2023-05-06T10:05:50.317Z,51.25
2023-05-06T10:07:56.535Z,50.89
2023-05-06T10:10:02.194Z,50.59
2023-05-06T10:12:08.573Z,50.58
2023-05-06T10:14:13.575Z,50.75
2023-05-06T10:16:20.275Z,50.26
2023-05-06T10:18:30.585Z,50.38
2023-05-06T10:20:36.178Z,49.72
2023-05-06T10:22:52.297Z,50.10
2023-05-06T10:25:04.581Z,49.69
2023-05-06T10:27:10.972Z,48.70
2023-05-06T10:29:16.444Z,48.97
2023-05-06T10:31:21.218Z,49.30
2023-05-06T10:33:27.504Z,49.60
2023-05-06T10:35:41.910Z,49.30
2023-05-06T10:37:49.029Z,49.12
2023-05-06T10:39:55.188Z,49.33
2023-05-06T10:42:02.988Z,49.61
2023-05-06T10:44:07.873Z,49.67
2023-05-06T10:46:13.998Z,49.72
2023-05-06T10:48:18.815Z,49.68
2023-05-06T10:50:25.282Z,49.37
2023-05-06T10:52:45.665Z,49.52
2023-05-06T10:54:51.570Z,49.85
2023-05-06T10:57:11.518Z,49.98
2023-05-06T10:59:20.608Z,50.00
2023-05-06T11:01:28.138Z,49.03
2023-05-06T11:03:33.816Z,48.72
2023-05-06T11:05:50.213Z,48.68
2023-05-06T11:08:06.833Z,48.64
2023-05-06T11:10:12.233Z,48.32
2023-05-06T11:12:21.446Z,48.55
2023-05-06T11:14:31.008Z,48.61
2023-05-06T11:16:52.706Z,48.37
2023-05-06T11:18:57.837Z,48.06
2023-05-06T11:21:33.392Z,47.54
2023-05-06T11:24:10.759Z,48.01
2023-05-06T11:26:15.661Z,47.83
2023-05-06T11:28:20.335Z,47.78
2023-05-06T11:30:25.356Z,47.06
2023-05-06T11:32:32.640Z,46.36
2023-05-06T11:34:37.285Z,46.18
2023-05-06T11:36:55.617Z,45.95
2023-05-06T11:39:05.293Z,46.45
2023-05-06T11:41:09.977Z,46.82
2023-05-06T11:43:15.978Z,47.10
2023-05-06T11:45:20.716Z,46.90
2023-05-06T11:47:25.477Z,46.91
2023-05-06T11:49:30.401Z,46.82
2023-05-06T11:51:35.201Z,46.53
2023-05-06T11:53:40.113Z,46.73
2023-05-06T11:55:45.858Z,47.04
2023-05-06T11:57:52.488Z,48.04
2023-05-06T11:59:57.195Z,48.93
2023-05-06T12:02:04.090Z,47.87
2023-05-06T12:04:09.010Z,46.72
2023-05-06T12:06:13.847Z,47.21
2023-05-06T12:08:27.402Z,46.70
2023-05-06T12:10:33.396Z,46.55
2023-05-06T12:12:38.278Z,45.75
2023-05-06T12:14:43.627Z,45.14
2023-05-06T12:16:48.640Z,44.28
2023-05-06T12:18:54.511Z,44.21
2023-05-06T12:21:02.547Z,45.01
2023-05-06T12:23:11.565Z,46.95
2023-05-06T12:25:17.784Z,48.41
2023-05-06T12:27:33.471Z,49.42
2023-05-06T12:29:38.180Z,49.96
2023-05-06T12:31:43.325Z,50.56
2023-05-06T12:33:48.677Z,51.03
2023-05-06T12:35:53.390Z,52.16
2023-05-06T12:38:09.729Z,52.76
2023-05-06T12:40:19.324Z,53.63
2023-05-06T12:42:24.146Z,53.74
2023-05-06T12:44:38.351Z,53.95
2023-05-06T12:46:53.474Z,53.98
2023-05-06T12:49:04.739Z,54.33
2023-05-06T12:51:22.764Z,54.65
2023-05-06T12:53:35.448Z,54.44
2023-05-06T12:55:43.582Z,54.82
2023-05-06T12:57:48.730Z,54.88
2023-05-06T12:59:53.989Z,55.30
2023-05-06T13:01:59.335Z,55.34
2023-05-06T13:04:04.325Z,55.67
2023-05-06T13:06:09.160Z,55.49
2023-05-06T13:08:14.055Z,55.49
2023-05-06T13:10:18.836Z,55.57
2023-05-06T13:12:23.667Z,55.79
2023-05-06T13:14:28.247Z,55.76
2023-05-06T13:16:33.323Z,55.67
2023-05-06T13:18:38.092Z,55.68
2023-05-06T13:20:48.197Z,55.62
2023-05-06T13:22:55.154Z,55.55
2023-05-06T13:25:00.065Z,55.58
2023-05-06T13:27:04.782Z,55.69
2023-05-06T13:29:09.492Z,56.05
2023-05-06T13:31:14.201Z,56.15
2023-05-06T13:33:18.872Z,55.69
2023-05-06T13:35:23.650Z,55.36
2023-05-06T13:37:28.404Z,55.38
2023-05-06T13:39:33.073Z,55.60
2023-05-06T13:41:37.753Z,55.97
2023-05-06T13:43:43.082Z,56.21
2023-05-06T13:45:47.895Z,56.46
2023-05-06T13:47:52.727Z,56.44
2023-05-06T13:49:57.586Z,56.40
2023-05-06T13:52:02.238Z,56.91
2023-05-06T13:54:07.044Z,56.71
2023-05-06T13:56:11.659Z,56.28
2023-05-06T13:58:16.422Z,56.10
2023-05-06T14:00:21.679Z,56.45
2023-05-06T14:02:26.395Z,56.17
2023-05-06T14:04:31.159Z,56.35
2023-05-06T14:06:35.833Z,56.60
2023-05-06T14:08:40.477Z,56.63
2023-05-06T14:10:45.443Z,56.94
2023-05-06T14:12:50.141Z,56.44
2023-05-06T14:14:54.797Z,57.05
2023-05-06T14:16:59.527Z,57.69
2023-05-06T14:19:04.358Z,59.23
2023-05-06T14:21:09.369Z,62.10
2023-05-06T14:23:14.199Z,66.16
2023-05-06T14:25:22.443Z,70.37
2023-05-06T14:27:27.386Z,71.98
2023-05-06T14:29:32.111Z,73.95
2023-05-06T14:31:36.925Z,74.20
2023-05-06T14:33:41.599Z,74.61
2023-05-06T14:35:46.328Z,75.08
2023-05-06T14:37:51.211Z,76.31
2023-05-06T14:39:56.608Z,77.00
2023-05-06T14:42:01.481Z,76.69
2023-05-06T14:44:06.636Z,76.15
2023-05-06T14:46:11.389Z,76.83
2023-05-06T14:48:16.129Z,77.81
2023-05-06T14:50:21.013Z,77.92
2023-05-06T14:52:25.739Z,78.05
2023-05-06T14:54:30.308Z,78.24
2023-05-06T14:56:35.432Z,77.61
2023-05-06T14:58:40.121Z,77.88
2023-05-06T15:00:47.568Z,78.09
2023-05-06T15:02:52.303Z,78.00
2023-05-06T15:04:57.018Z,77.25
2023-05-06T15:07:01.736Z,76.99
2023-05-06T15:09:06.574Z,75.74
2023-05-06T15:11:11.452Z,75.74
2023-05-06T15:13:16.754Z,75.33
2023-05-06T15:15:21.815Z,75.08
2023-05-06T15:17:26.517Z,73.72
2023-05-06T15:19:31.379Z,73.44
2023-05-06T15:21:36.074Z,72.40
2023-05-06T15:23:40.780Z,71.30
2023-05-06T15:25:45.329Z,70.70
2023-05-06T15:27:50.085Z,71.03
2023-05-06T15:29:54.786Z,71.31
2023-05-06T15:31:59.482Z,71.18
2023-05-06T15:34:06.882Z,70.67
2023-05-06T15:36:11.962Z,70.78
2023-05-06T15:38:16.549Z,69.92
2023-05-06T15:40:21.266Z,67.04
2023-05-06T15:42:26.026Z,66.16
2023-05-06T15:44:31.963Z,66.18
2023-05-06T15:46:36.996Z,65.82
2023-05-06T15:48:41.928Z,65.45
2023-05-06T15:50:46.603Z,66.11
2023-05-06T15:52:51.226Z,65.25
2023-05-06T15:54:59.752Z,64.83
2023-05-06T15:57:05.227Z,64.85
2023-05-06T15:59:11.543Z,63.53
2023-05-06T16:01:16.501Z,63.67
2023-05-06T16:03:21.549Z,63.53
2023-05-06T16:05:26.368Z,62.27
2023-05-06T16:07:30.794Z,62.21
2023-05-06T16:09:35.498Z,62.21
2023-05-06T16:11:40.135Z,61.65
2023-05-06T16:13:44.862Z,63.09
2023-05-06T16:15:49.930Z,63.91
2023-05-06T16:17:54.592Z,64.14
2023-05-06T16:19:59.248Z,64.26
2023-05-06T16:22:03.948Z,64.37
2023-05-06T16:24:09.202Z,64.46
2023-05-06T16:26:14.164Z,64.18
2023-05-06T16:28:18.844Z,64.08
2023-05-06T16:30:23.742Z,63.59
2023-05-06T16:32:28.532Z,63.54
2023-05-06T16:34:33.282Z,63.52
2023-05-06T16:36:38.115Z,63.26
2023-05-06T16:38:42.849Z,63.49
2023-05-06T16:40:50.141Z,63.45
2023-05-06T16:42:55.468Z,63.42
2023-05-06T16:45:00.156Z,63.42
2023-05-06T16:47:07.936Z,63.39
2023-05-06T16:49:13.065Z,63.53
2023-05-06T16:51:17.778Z,63.84
2023-05-06T16:53:22.470Z,63.86
2023-05-06T16:55:27.092Z,64.78
2023-05-06T16:57:31.908Z,65.46
2023-05-06T16:59:36.635Z,65.88
2023-05-06T17:01:41.301Z,66.36
2023-05-06T17:03:46.220Z,66.80
2023-05-06T17:05:50.945Z,66.70
2023-05-06T17:07:55.676Z,66.82
2023-05-06T17:10:01.106Z,67.11
2023-05-06T17:12:06.414Z,67.11
2023-05-06T17:14:11.345Z,65.99
2023-05-06T17:16:16.501Z,67.24
2023-05-06T17:18:21.219Z,69.06
2023-05-06T17:20:25.947Z,68.97
2023-05-06T17:22:30.862Z,69.45
2023-05-06T17:24:35.748Z,70.08
2023-05-06T17:26:40.429Z,70.52
2023-05-06T17:28:45.164Z,71.45
2023-05-06T17:30:49.920Z,72.14
2023-05-06T17:32:54.862Z,73.19
2023-05-06T17:34:59.700Z,74.71
2023-05-06T17:37:04.421Z,74.78
2023-05-06T17:39:09.129Z,74.78
2023-05-06T17:41:13.895Z,74.74
2023-05-06T17:43:18.646Z,74.93
2023-05-06T17:45:23.336Z,75.89
2023-05-06T17:47:28.008Z,76.40
2023-05-06T17:49:32.773Z,76.78
2023-05-06T17:51:37.529Z,77.08
2023-05-06T17:53:42.381Z,77.87
2023-05-06T17:55:47.015Z,77.91
2023-05-06T17:57:51.773Z,78.18
2023-05-06T17:59:56.456Z,77.53
2023-05-06T18:02:01.171Z,77.77
2023-05-06T18:04:06.049Z,78.21
2023-05-06T18:06:11.133Z,78.15
2023-05-06T18:08:15.928Z,77.99
2023-05-06T18:10:20.995Z,78.14
2023-05-06T18:12:25.766Z,78.76
2023-05-06T18:14:30.577Z,78.71
2023-05-06T18:16:35.352Z,78.45
2023-05-06T18:18:40.087Z,78.58
2023-05-06T18:20:44.783Z,78.68
2023-05-06T18:22:49.479Z,78.74
2023-05-06T18:24:54.191Z,78.52
2023-05-06T18:26:58.949Z,78.29
2023-05-06T18:29:04.902Z,78.68
2023-05-06T18:31:09.616Z,78.94
2023-05-06T18:33:14.478Z,79.51
2023-05-06T18:35:19.614Z,79.64
2023-05-06T18:37:24.332Z,79.32
2023-05-06T18:39:29.032Z,79.24
2023-05-06T18:41:33.703Z,79.77
2023-05-06T18:43:38.353Z,80.36
2023-05-06T18:45:43.357Z,80.89
2023-05-06T18:47:49.597Z,81.39
2023-05-06T18:49:54.372Z,81.50
2023-05-06T18:51:59.189Z,81.58
2023-05-06T18:54:03.916Z,81.68
2023-05-06T18:56:09.765Z,81.68
2023-05-06T18:58:14.383Z,81.93
2023-05-06T19:00:19.481Z,82.26
2023-05-06T19:02:24.209Z,82.98
2023-05-06T19:04:28.986Z,83.76
2023-05-06T19:06:34.046Z,83.53
2023-05-06T19:08:39.006Z,83.79
2023-05-06T19:10:43.779Z,84.14
2023-05-06T19:12:48.569Z,84.69
2023-05-06T19:14:53.319Z,85.26
2023-05-06T19:16:58.200Z,85.38
2023-05-06T19:19:03.038Z,85.88
2023-05-06T19:21:10.578Z,87.06
2023-05-06T19:23:15.458Z,87.68
2023-05-06T19:25:20.371Z,88.04
2023-05-06T19:27:25.086Z,88.58
2023-05-06T19:29:29.769Z,88.42
2023-05-06T19:31:34.594Z,88.88
2023-05-06T19:33:39.964Z,89.56
2023-05-06T19:35:44.720Z,90.58
2023-05-06T19:37:49.378Z,91.39
2023-05-06T19:39:54.142Z,91.01
2023-05-06T19:41:58.879Z,90.86
2023-05-06T19:44:03.651Z,90.50
2023-05-06T19:46:08.380Z,90.67
2023-05-06T19:48:13.125Z,90.56
2023-05-06T19:50:17.819Z,90.37
2023-05-06T19:52:22.460Z,90.57
2023-05-06T19:54:27.261Z,90.80
2023-05-06T19:56:31.947Z,91.66
2023-05-06T19:58:36.618Z,92.78
2023-05-06T20:00:41.278Z,92.25
2023-05-06T20:02:46.140Z,92.45
2023-05-06T20:04:51.017Z,93.23
2023-05-06T20:06:55.734Z,93.23
2023-05-06T20:09:00.988Z,93.59
2023-05-06T20:11:06.562Z,93.59
2023-05-06T20:13:11.445Z,93.93
2023-05-06T20:15:16.342Z,94.17
2023-05-06T20:17:21.112Z,94.50
2023-05-06T20:19:25.864Z,94.05
2023-05-06T20:21:30.616Z,94.68
2023-05-06T20:23:35.390Z,94.39
2023-05-06T20:25:40.107Z,94.09
2023-05-06T20:27:45.177Z,94.18
2023-05-06T20:29:50.019Z,94.73
2023-05-06T20:31:54.938Z,95.06
2023-05-06T20:33:59.674Z,95.19
2023-05-06T20:36:05.603Z,95.57
2023-05-06T20:38:10.685Z,95.55
2023-05-06T20:40:16.056Z,95.62
2023-05-06T20:42:20.716Z,95.69
2023-05-06T20:44:25.393Z,96.34
2023-05-06T20:46:30.118Z,96.57
2023-05-06T20:48:34.919Z,96.40
2023-05-06T20:50:39.706Z,96.52
2023-05-06T20:52:45.094Z,95.87
2023-05-06T20:54:49.894Z,95.77
2023-05-06T20:56:54.602Z,95.48
2023-05-06T20:58:59.373Z,95.03
2023-05-06T21:01:04.652Z,95.16
2023-05-06T21:03:09.425Z,95.23
2023-05-06T21:05:14.269Z,95.55
2023-05-06T21:07:19.082Z,95.85
2023-05-06T21:09:23.970Z,95.86
2023-05-06T21:11:28.985Z,95.71
2023-05-06T21:13:33.753Z,96.12
2023-05-06T21:15:38.387Z,95.76
2023-05-06T21:17:43.167Z,95.73
2023-05-06T21:19:47.923Z,95.72
2023-05-06T21:21:52.488Z,95.39
2023-05-06T21:23:57.238Z,94.82
2023-05-06T21:26:04.868Z,94.95
2023-05-06T21:28:09.569Z,94.97
2023-05-06T21:30:15.076Z,95.24
2023-05-06T21:32:19.895Z,95.40
2023-05-06T21:34:24.557Z,95.21
2023-05-06T21:36:29.449Z,94.77
2023-05-06T21:38:34.182Z,94.44
2023-05-06T21:40:38.892Z,94.37
2023-05-06T21:42:43.659Z,94.28
2023-05-06T21:44:48.279Z,94.39
2023-05-06T21:46:53.037Z,94.40
2023-05-06T21:48:58.497Z,94.37
2023-05-06T21:51:06.111Z,94.47
2023-05-06T21:53:10.786Z,94.10
2023-05-06T21:55:15.486Z,94.29
2023-05-06T21:57:20.618Z,94.34
2023-05-06T21:59:25.364Z,94.50
2023-05-06T22:01:30.219Z,94.83
2023-05-06T22:03:35.138Z,95.51
2023-05-06T22:05:40.748Z,95.31
2023-05-06T22:07:45.568Z,95.86
2023-05-06T22:09:50.124Z,96.12
2023-05-06T22:11:54.690Z,96.00
2023-05-06T22:13:59.340Z,95.87
2023-05-06T22:16:07.954Z,95.83
2023-05-06T22:18:12.581Z,95.80
2023-05-06T22:20:17.599Z,95.44
2023-05-06T22:22:22.365Z,95.41
2023-05-06T22:24:28.567Z,95.57
2023-05-06T22:26:33.230Z,95.60
2023-05-06T22:28:37.873Z,96.06
2023-05-06T22:30:42.490Z,96.06
2023-05-06T22:32:47.287Z,95.71
2023-05-06T22:34:52.014Z,96.09
2023-05-06T22:36:58.087Z,96.56
2023-05-06T22:39:03.931Z,96.63
2023-05-06T22:41:08.691Z,96.66
2023-05-06T22:43:13.317Z,97.23
2023-05-06T22:45:17.933Z,97.69
2023-05-06T22:47:22.671Z,97.83
2023-05-06T22:49:27.460Z,97.93
2023-05-06T22:51:32.155Z,98.47
2023-05-06T22:53:37.030Z,98.84
2023-05-06T22:55:41.648Z,98.92
2023-05-06T22:57:46.397Z,99.45
2023-05-06T22:59:51.021Z,99.30
2023-05-06T23:01:56.102Z,98.97
2023-05-06T23:04:01.004Z,98.88
2023-05-06T23:06:08.710Z,98.66
2023-05-06T23:08:13.370Z,98.49
2023-05-06T23:10:18.781Z,98.35
2023-05-06T23:12:23.463Z,97.87
2023-05-06T23:14:28.593Z,97.90
2023-05-06T23:16:33.387Z,97.72
2023-05-06T23:18:38.085Z,97.55
2023-05-06T23:20:42.909Z,98.00
2023-05-06T23:22:47.555Z,97.75
2023-05-06T23:24:52.342Z,98.00
2023-05-06T23:26:57.058Z,98.18
2023-05-06T23:29:01.823Z,97.98
2023-05-06T23:31:06.676Z,97.85
2023-05-06T23:33:11.506Z,98.00
2023-05-06T23:35:16.291Z,97.93
2023-05-06T23:37:20.962Z,98.22
2023-05-06T23:39:25.599Z,98.36
2023-05-06T23:41:31.490Z,97.73
2023-05-06T23:43:36.197Z,97.29
2023-05-06T23:45:40.843Z,97.12
2023-05-06T23:47:45.608Z,97.26
2023-05-06T23:49:50.401Z,97.76
2023-05-06T23:51:55.107Z,97.15
2023-05-06T23:53:59.950Z,96.87
2023-05-06T23:56:05.221Z,96.95
2023-05-06T23:58:09.937Z,96.96
